createdAt,value
2018-08-20T00:01:36.639Z,6.33
2018-08-20T00:04:09.465Z,6.07
2018-08-20T00:06:50.263Z,6.37
2018-08-20T00:09:20.053Z,6.33
2018-08-20T00:11:49.136Z,6.80
2018-08-20T00:14:19.292Z,6.37
2018-08-20T00:16:47.948Z,6.27
2018-08-20T00:19:16.687Z,6.87
2018-08-20T00:21:45.661Z,6.67
2018-08-20T00:24:14.300Z,6.80
2018-08-20T00:26:42.926Z,6.70
2018-08-20T00:29:11.537Z,6.80
2018-08-20T00:31:40.214Z,7.07
2018-08-20T00:34:08.857Z,7.13
2018-08-20T00:36:37.485Z,7.00
2018-08-20T00:39:08.009Z,7.30
2018-08-20T00:41:36.622Z,7.73
2018-08-20T00:44:08.650Z,7.40
2018-08-20T00:46:37.269Z,7.53
2018-08-20T00:49:05.929Z,7.40
2018-08-20T00:51:34.728Z,7.63
2018-08-20T00:54:03.642Z,7.40
2018-08-20T00:56:32.249Z,7.23
2018-08-20T00:59:01.587Z,7.53
2018-08-20T01:01:30.258Z,8.03
2018-08-20T01:03:59.179Z,7.27
2018-08-20T01:06:27.849Z,7.60
2018-08-20T01:08:56.620Z,8.20
2018-08-20T01:11:25.241Z,7.83
2018-08-20T01:13:53.886Z,7.73
2018-08-20T01:16:22.533Z,7.10
2018-08-20T01:18:51.392Z,7.47
2018-08-20T01:21:20.007Z,7.30
2018-08-20T01:23:48.701Z,7.87
2018-08-20T01:26:17.332Z,7.80
2018-08-20T01:28:46.063Z,8.10
2018-08-20T01:31:14.701Z,8.07
2018-08-20T01:33:43.346Z,7.70
2018-08-20T01:36:13.572Z,8.00
2018-08-20T01:38:42.173Z,8.83
2018-08-20T01:41:10.788Z,8.80
2018-08-20T01:43:39.439Z,7.70
2018-08-20T01:46:08.237Z,8.97
2018-08-20T01:48:36.904Z,9.13
2018-08-20T01:51:05.616Z,8.77
2018-08-20T01:53:37.173Z,7.53
2018-08-20T01:56:05.834Z,7.97
2018-08-20T01:58:34.444Z,9.07
2018-08-20T02:01:08.963Z,9.07
2018-08-20T02:03:37.747Z,8.97
2018-08-20T02:06:06.473Z,9.07
2018-08-20T02:08:35.132Z,9.20
2018-08-20T02:11:03.869Z,9.40
2018-08-20T02:13:32.666Z,10.07
2018-08-20T02:16:01.438Z,9.57
2018-08-20T02:18:30.149Z,8.83
2018-08-20T02:20:58.939Z,9.13
2018-08-20T02:23:27.597Z,9.57
2018-08-20T02:25:56.254Z,9.40
2018-08-20T02:28:24.901Z,9.70
2018-08-20T02:30:53.826Z,9.90
2018-08-20T02:33:22.469Z,10.90
2018-08-20T02:35:51.100Z,11.00
2018-08-20T02:38:20.044Z,9.77
2018-08-20T02:40:48.729Z,10.00
2018-08-20T02:43:17.386Z,10.53
2018-08-20T02:45:46.066Z,10.57
2018-08-20T02:48:14.742Z,10.67
2018-08-20T02:50:43.552Z,10.63
2018-08-20T02:53:12.232Z,10.00
2018-08-20T02:55:40.890Z,10.30
2018-08-20T02:58:09.651Z,10.67
2018-08-20T03:00:38.284Z,10.50
2018-08-20T03:03:07.066Z,9.97
2018-08-20T03:05:35.691Z,10.03
2018-08-20T03:08:04.419Z,10.40
2018-08-20T03:10:33.333Z,11.10
2018-08-20T03:13:02.154Z,11.13
2018-08-20T03:15:31.060Z,10.13
2018-08-20T03:17:59.695Z,10.80
2018-08-20T03:20:28.349Z,12.33
2018-08-20T03:22:57.005Z,11.07
2018-08-20T03:25:25.660Z,11.13
2018-08-20T03:27:54.322Z,11.23
2018-08-20T03:30:22.963Z,11.10
2018-08-20T03:32:51.603Z,10.70
2018-08-20T03:35:20.306Z,11.07
2018-08-20T03:37:48.998Z,11.07
2018-08-20T03:40:17.722Z,11.07
2018-08-20T03:42:46.389Z,10.43
2018-08-20T03:45:15.037Z,10.37
2018-08-20T03:47:43.752Z,10.87
2018-08-20T03:50:14.178Z,10.83
2018-08-20T03:52:42.881Z,10.67
2018-08-20T03:55:11.573Z,11.90
2018-08-20T03:57:40.249Z,10.90
2018-08-20T04:00:10.133Z,11.83
2018-08-20T04:02:38.786Z,10.83
2018-08-20T04:05:07.616Z,11.27
2018-08-20T04:07:36.186Z,11.80
2018-08-20T04:10:04.886Z,11.17
2018-08-20T04:12:33.554Z,11.17
2018-08-20T04:15:02.197Z,11.90
2018-08-20T04:17:37.653Z,11.53
2018-08-20T04:20:06.390Z,10.97
2018-08-20T04:22:35.044Z,11.43
2018-08-20T04:25:03.761Z,11.40
2018-08-20T04:27:32.369Z,11.37
2018-08-20T04:30:01.683Z,10.07
2018-08-20T04:32:30.315Z,12.37
2018-08-20T04:34:58.925Z,10.70
2018-08-20T04:37:27.610Z,11.50
2018-08-20T04:39:56.226Z,11.73
2018-08-20T04:42:24.889Z,12.17
2018-08-20T04:44:53.511Z,11.53
2018-08-20T04:47:22.185Z,11.30
2018-08-20T04:49:50.852Z,12.10
2018-08-20T04:52:19.604Z,11.17
2018-08-20T04:54:48.225Z,11.03
2018-08-20T04:57:16.933Z,10.77
2018-08-20T04:59:45.557Z,11.23
2018-08-20T05:02:14.249Z,12.13
2018-08-20T05:04:42.910Z,12.00
2018-08-20T05:07:11.530Z,11.43
2018-08-20T05:09:40.206Z,11.83
2018-08-20T05:12:08.865Z,12.30
2018-08-20T05:14:37.486Z,11.63
2018-08-20T05:17:06.405Z,12.67
2018-08-20T05:19:35.031Z,12.47
2018-08-20T05:22:03.697Z,12.90
2018-08-20T05:24:32.336Z,11.97
2018-08-20T05:27:01.532Z,11.37
2018-08-20T05:29:30.261Z,11.90
2018-08-20T05:31:58.921Z,12.73
2018-08-20T05:34:27.561Z,11.40
2018-08-20T05:36:56.270Z,11.07
2018-08-20T05:39:31.569Z,12.43
2018-08-20T05:42:00.287Z,11.97
2018-08-20T05:44:28.932Z,11.23
2018-08-20T05:46:57.599Z,11.30
2018-08-20T05:49:26.271Z,11.33
2018-08-20T05:51:54.931Z,12.03
2018-08-20T05:54:23.615Z,10.73
2018-08-20T05:56:52.239Z,11.23
2018-08-20T05:59:20.949Z,9.37
2018-08-20T06:01:49.603Z,9.67
2018-08-20T06:04:18.249Z,10.80
2018-08-20T06:06:46.901Z,9.87
2018-08-20T06:09:15.583Z,9.83
2018-08-20T06:11:44.266Z,9.27
2018-08-20T06:14:12.979Z,9.37
2018-08-20T06:16:41.653Z,8.60
2018-08-20T06:19:10.390Z,8.63
2018-08-20T06:21:39.079Z,8.77
2018-08-20T06:24:07.713Z,9.10
2018-08-20T06:26:36.384Z,8.17
2018-08-20T06:29:05.085Z,8.37
2018-08-20T06:31:33.816Z,7.83
2018-08-20T07:11:03.758Z,6.03
2018-08-20T07:13:34.209Z,5.20
2018-08-20T07:16:03.092Z,5.93
2018-08-20T07:18:31.832Z,5.70
2018-08-20T07:21:00.525Z,5.83
2018-08-20T07:23:29.818Z,5.83
2018-08-20T07:25:58.581Z,7.27
2018-08-20T07:28:27.285Z,6.07
2018-08-20T07:30:55.917Z,5.30
2018-08-20T07:33:24.629Z,5.90
2018-08-20T07:35:53.331Z,6.63
2018-08-20T07:38:22.010Z,6.17
2018-08-20T07:40:50.668Z,5.97
2018-08-20T07:43:19.353Z,5.80
2018-08-20T07:45:48.055Z,5.70
2018-08-20T07:48:16.727Z,6.13
2018-08-20T07:50:45.451Z,6.80
2018-08-20T07:53:14.104Z,5.23
2018-08-20T07:55:42.760Z,6.27
2018-08-20T07:58:11.569Z,6.10
2018-08-20T08:00:40.198Z,5.93
2018-08-20T08:03:08.941Z,5.77
2018-08-20T08:05:37.589Z,6.20
2018-08-20T08:08:06.325Z,6.03
2018-08-20T08:10:35.013Z,6.27
2018-08-20T08:13:03.694Z,5.60
2018-08-20T08:15:32.554Z,5.87
2018-08-20T08:18:01.355Z,5.43
2018-08-20T08:20:30.018Z,6.33
2018-08-20T08:22:58.678Z,7.00
2018-08-20T08:25:27.305Z,6.23
2018-08-20T08:27:56.014Z,6.13
2018-08-20T08:30:24.615Z,6.40
2018-08-20T08:32:53.254Z,5.57
2018-08-20T08:35:21.961Z,6.00
2018-08-20T08:37:50.621Z,6.73
2018-08-20T08:40:19.335Z,6.43
2018-08-20T08:42:47.985Z,6.60
2018-08-20T08:45:18.269Z,6.67
2018-08-20T08:47:47.220Z,5.63
2018-08-20T08:50:16.963Z,5.57
2018-08-20T08:52:46.021Z,5.73
2018-08-20T08:55:14.697Z,5.67
2018-08-20T08:57:43.370Z,6.33
2018-08-20T09:00:18.287Z,5.33
2018-08-20T09:02:46.995Z,6.00
2018-08-20T09:05:15.789Z,5.17
2018-08-20T09:07:44.677Z,5.40
2018-08-20T09:10:13.629Z,6.30
2018-08-20T09:12:42.331Z,5.63
2018-08-20T09:15:16.127Z,6.60
2018-08-20T09:17:45.081Z,5.50
2018-08-20T09:20:15.197Z,6.00
2018-08-20T09:22:44.177Z,5.20
2018-08-20T09:25:13.660Z,5.70
2018-08-20T09:27:43.218Z,5.50
2018-08-20T09:30:22.726Z,5.73
2018-08-20T09:32:51.419Z,6.07
2018-08-20T09:35:20.200Z,5.43
2018-08-20T09:37:48.917Z,5.53
2018-08-20T09:40:17.618Z,5.93
2018-08-20T09:42:52.957Z,5.63
2018-08-20T09:45:21.624Z,6.03
2018-08-20T09:47:50.240Z,6.07
2018-08-20T09:50:21.723Z,6.10
2018-08-20T09:52:50.375Z,5.93
2018-08-20T09:55:19.036Z,5.90
2018-08-20T09:57:47.713Z,6.23
2018-08-20T10:00:22.126Z,7.03
2018-08-20T10:02:51.605Z,5.60
2018-08-20T10:05:20.532Z,6.03
2018-08-20T10:07:49.475Z,5.80
2018-08-20T10:10:18.191Z,5.73
2018-08-20T10:12:47.117Z,5.33
2018-08-20T10:15:15.943Z,5.43
2018-08-20T10:17:44.981Z,5.30
2018-08-20T10:20:14.682Z,5.40
2018-08-20T10:22:43.376Z,5.57
2018-08-20T10:25:12.113Z,5.13
2018-08-20T10:27:40.754Z,5.43
2018-08-20T10:30:10.549Z,5.70
2018-08-20T10:32:39.189Z,4.97
2018-08-20T10:35:07.917Z,5.50
2018-08-20T10:37:36.608Z,6.10
2018-08-20T10:40:07.007Z,5.47
2018-08-20T10:42:35.698Z,4.77
2018-08-20T10:45:10.214Z,5.47
2018-08-20T10:47:38.825Z,5.70
2018-08-20T10:50:10.929Z,5.20
2018-08-20T10:52:39.539Z,5.50
2018-08-20T10:55:08.211Z,4.80
2018-08-20T10:57:36.828Z,5.43
2018-08-20T11:00:06.357Z,5.30
2018-08-20T11:02:34.988Z,5.20
2018-08-20T11:05:04.231Z,5.63
2018-08-20T11:07:32.874Z,5.30
2018-08-20T11:10:03.403Z,5.20
2018-08-20T11:12:32.401Z,5.17
2018-08-20T11:15:02.034Z,4.77
2018-08-20T11:17:30.686Z,5.33
2018-08-20T11:19:59.338Z,5.40
2018-08-20T11:22:27.993Z,5.20
2018-08-20T11:24:56.613Z,5.10
2018-08-20T11:27:25.307Z,4.60
2018-08-20T11:29:53.938Z,5.33
2018-08-20T11:32:22.634Z,5.03
2018-08-20T11:34:51.261Z,5.30
2018-08-20T11:37:19.960Z,4.80
2018-08-20T11:39:48.568Z,5.00
2018-08-20T11:42:17.222Z,4.93
2018-08-20T11:44:45.871Z,4.97
2018-08-20T11:47:14.545Z,5.10
2018-08-20T11:49:43.208Z,4.63
2018-08-20T11:52:11.836Z,4.13
2018-08-20T11:54:40.603Z,4.30
2018-08-20T11:57:09.293Z,4.10
2018-08-20T11:59:37.910Z,3.90
2018-08-20T12:02:06.654Z,4.47
2018-08-20T12:04:35.310Z,4.40
2018-08-20T12:07:04.443Z,4.33
2018-08-20T12:09:32.967Z,4.50
2018-08-20T12:12:02.329Z,4.90
2018-08-20T12:14:31.184Z,4.90
2018-08-20T12:16:59.807Z,3.97
2018-08-20T12:19:28.476Z,4.20
2018-08-20T12:21:57.148Z,3.63
2018-08-20T12:24:25.778Z,4.87
2018-08-20T12:26:54.597Z,5.07
2018-08-20T12:29:23.343Z,4.90
2018-08-20T12:31:52.070Z,4.70
2018-08-20T12:34:20.754Z,4.43
2018-08-20T12:36:49.440Z,5.47
2018-08-20T12:39:18.217Z,7.13
2018-08-20T12:41:46.886Z,8.13
2018-08-20T12:44:15.533Z,7.70
2018-08-20T12:46:44.282Z,6.20
2018-08-20T12:49:13.018Z,6.30
2018-08-20T12:51:41.710Z,6.83
2018-08-20T12:54:10.405Z,6.20
2018-08-20T12:56:39.171Z,6.93
2018-08-20T12:59:08.790Z,6.93
2018-08-20T13:01:37.652Z,5.73
2018-08-20T13:04:06.394Z,6.77
2018-08-20T13:06:35.182Z,6.50
2018-08-20T13:09:04.409Z,6.40
2018-08-20T13:11:33.084Z,6.87
2018-08-20T13:14:02.006Z,6.63
2018-08-20T13:16:30.829Z,7.10
2018-08-20T13:18:59.578Z,6.60
2018-08-20T13:21:28.264Z,7.40
2018-08-20T13:23:57.122Z,6.50
2018-08-20T13:26:25.858Z,6.77
2018-08-20T13:28:54.573Z,6.90
2018-08-20T13:31:23.236Z,6.57
2018-08-20T13:33:51.954Z,6.33
2018-08-20T13:36:20.747Z,6.00
2018-08-20T13:38:49.494Z,6.13
2018-08-20T13:41:18.227Z,6.03
2018-08-20T13:43:46.982Z,6.50
2018-08-20T13:46:15.753Z,6.63
2018-08-20T13:48:44.499Z,6.93
2018-08-20T13:51:13.232Z,6.20
2018-08-20T13:53:41.962Z,5.57
2018-08-20T13:56:10.714Z,6.07
2018-08-20T13:58:39.716Z,6.23
2018-08-20T14:01:08.498Z,6.47
2018-08-20T14:03:37.149Z,6.87
2018-08-20T14:06:05.858Z,5.87
2018-08-20T14:08:34.507Z,5.70
2018-08-20T14:11:03.153Z,5.67
2018-08-20T14:13:31.791Z,5.90
2018-08-20T14:16:00.514Z,6.33
2018-08-20T14:18:29.168Z,5.40
2018-08-20T14:21:03.666Z,5.20
2018-08-20T14:23:32.374Z,5.77
2018-08-20T14:26:01.138Z,5.57
2018-08-20T14:28:30.528Z,5.50
2018-08-20T14:30:59.169Z,5.80
2018-08-20T14:33:27.886Z,5.97
2018-08-20T14:35:56.540Z,5.50
2018-08-20T14:38:25.226Z,5.57
2018-08-20T14:40:53.916Z,6.20
2018-08-20T14:43:22.683Z,5.80
2018-08-20T14:45:56.403Z,6.60
2018-08-20T14:48:25.473Z,6.30
2018-08-20T14:50:54.204Z,6.40
2018-08-20T14:53:22.914Z,6.47
2018-08-20T14:55:51.613Z,6.87
2018-08-20T14:58:20.314Z,7.00
2018-08-20T15:00:49.001Z,6.63
2018-08-20T15:03:17.655Z,6.57
2018-08-20T15:05:46.318Z,6.10
2018-08-20T15:08:15.071Z,5.93
2018-08-20T15:10:43.919Z,5.90
2018-08-20T15:13:12.813Z,6.23
2018-08-20T15:15:41.753Z,6.00
2018-08-20T15:18:10.297Z,6.07
2018-08-20T15:20:38.960Z,5.67
2018-08-20T15:23:07.634Z,5.60
2018-08-20T15:25:36.463Z,5.77
2018-08-20T15:28:05.177Z,5.83
2018-08-20T15:30:33.839Z,4.83
2018-08-20T15:33:02.485Z,5.57
2018-08-20T15:35:31.149Z,6.20
2018-08-20T15:37:59.958Z,5.53
2018-08-20T15:40:28.626Z,6.03
2018-08-20T15:42:57.350Z,6.73
2018-08-20T15:45:26.029Z,5.60
2018-08-20T15:47:54.647Z,6.23
2018-08-20T15:50:23.325Z,5.97
2018-08-20T15:52:51.977Z,5.07
2018-08-20T15:55:20.597Z,5.70
2018-08-20T15:57:49.298Z,4.97
2018-08-20T16:00:17.937Z,4.37
2018-08-20T16:02:46.781Z,4.77
2018-08-20T16:05:15.459Z,4.70
2018-08-20T16:07:50.813Z,4.57
2018-08-20T16:10:19.489Z,4.53
2018-08-20T16:12:48.150Z,5.10
2018-08-20T16:15:16.833Z,4.50
2018-08-20T16:17:45.479Z,4.27
2018-08-20T16:20:14.142Z,4.63
2018-08-20T16:22:42.851Z,5.50
2018-08-20T16:25:11.504Z,4.33
2018-08-20T16:27:40.150Z,4.70
2018-08-20T16:30:11.062Z,4.37
2018-08-20T16:32:39.716Z,4.57
2018-08-20T16:35:09.764Z,4.90
2018-08-20T16:37:38.525Z,4.93
2018-08-20T16:40:07.376Z,5.10
2018-08-20T16:42:36.120Z,4.57
2018-08-20T16:45:05.724Z,4.30
2018-08-20T16:47:34.420Z,4.40
2018-08-20T16:50:03.239Z,4.33
2018-08-20T16:52:31.886Z,4.30
2018-08-20T16:55:00.625Z,4.20
2018-08-20T16:57:29.326Z,4.50
2018-08-20T16:59:57.986Z,4.00
2018-08-20T17:02:28.983Z,4.90
2018-08-20T17:04:57.880Z,3.77
2018-08-20T17:07:26.526Z,4.90
2018-08-20T17:09:55.148Z,4.23
2018-08-20T17:12:23.854Z,4.27
2018-08-20T17:14:52.557Z,4.67
2018-08-20T17:17:21.241Z,5.10
2018-08-20T17:19:50.023Z,4.53
2018-08-20T17:22:18.818Z,4.33
2018-08-20T17:24:53.894Z,4.47
2018-08-20T17:27:22.573Z,4.60
2018-08-20T17:29:54.185Z,4.67
2018-08-20T17:32:22.861Z,4.90
2018-08-20T17:34:51.478Z,4.70
2018-08-20T17:37:20.132Z,4.30
2018-08-20T17:40:00.473Z,4.30
2018-08-20T17:42:30.358Z,4.33
2018-08-20T17:44:59.672Z,4.10
2018-08-20T17:47:29.089Z,4.50
2018-08-20T17:49:59.557Z,4.17
2018-08-20T17:52:32.238Z,4.30
2018-08-20T17:55:03.048Z,4.30
2018-08-20T17:57:31.795Z,4.23
2018-08-20T18:00:42.670Z,4.43
2018-08-20T18:03:19.242Z,4.43
2018-08-20T18:06:06.811Z,4.03
2018-08-20T18:08:35.652Z,3.93
2018-08-20T18:11:05.197Z,4.37
2018-08-20T18:13:43.838Z,4.43
2018-08-20T18:16:13.662Z,4.30
2018-08-20T18:18:46.965Z,3.50
2018-08-20T18:21:15.742Z,3.73
2018-08-20T18:23:44.517Z,3.70
2018-08-20T18:26:19.582Z,4.20
2018-08-20T18:28:52.834Z,4.13
2018-08-20T18:31:25.011Z,4.13
2018-08-20T18:33:53.735Z,3.57
2018-08-20T18:36:23.508Z,3.70
2018-08-20T18:39:01.401Z,3.67
2018-08-20T18:42:11.534Z,5.23
2018-08-20T18:44:40.222Z,3.90
2018-08-20T18:47:10.545Z,4.33
2018-08-20T18:49:46.690Z,5.13
2018-08-20T18:52:15.718Z,4.23
2018-08-20T18:54:50.050Z,5.27
2018-08-20T18:57:23.237Z,5.03
2018-08-20T18:59:52.370Z,4.27
2018-08-20T19:02:54.932Z,4.77
2018-08-20T19:05:23.665Z,5.30
2018-08-20T19:07:52.353Z,5.10
2018-08-20T19:10:27.034Z,5.40
2018-08-20T19:12:55.775Z,5.87
2018-08-20T19:15:31.229Z,5.13
2018-08-20T19:18:00.064Z,5.70
2018-08-20T19:20:28.765Z,6.10
2018-08-20T19:22:57.468Z,5.80
2018-08-20T19:25:26.128Z,6.00
2018-08-20T19:27:54.898Z,5.27
2018-08-20T19:30:24.901Z,5.43
2018-08-20T19:32:53.569Z,5.27
2018-08-20T19:35:24.316Z,5.10
2018-08-20T19:37:53.018Z,5.87
2018-08-20T19:40:21.762Z,5.20
2018-08-20T19:42:52.645Z,5.03
2018-08-20T19:45:24.282Z,5.83
2018-08-20T19:47:52.996Z,5.43
2018-08-20T19:50:21.783Z,5.30
2018-08-20T19:52:50.658Z,5.50
2018-08-20T19:55:20.263Z,5.23
2018-08-20T19:57:48.875Z,5.13
2018-08-20T20:00:17.662Z,5.10
2018-08-20T20:02:46.317Z,5.73
2018-08-20T20:05:16.049Z,5.77
2018-08-20T20:07:51.974Z,4.83
2018-08-20T20:10:20.638Z,5.50
2018-08-20T20:12:53.973Z,4.93
2018-08-20T20:15:23.361Z,4.93
2018-08-20T20:17:52.601Z,5.20
2018-08-20T20:20:21.130Z,5.50
2018-08-20T20:22:49.741Z,5.20
2018-08-20T20:25:18.635Z,5.77
2018-08-20T20:27:47.345Z,5.87
2018-08-20T20:30:16.004Z,5.70
2018-08-20T20:32:44.629Z,5.73
2018-08-20T20:35:13.327Z,5.93
2018-08-20T20:37:41.998Z,5.23
2018-08-20T20:40:10.641Z,5.60
2018-08-20T20:42:39.321Z,5.57
2018-08-20T20:45:08.050Z,5.10
2018-08-20T20:47:36.681Z,5.37
2018-08-20T20:50:05.951Z,5.23
2018-08-20T20:52:34.614Z,5.57
2018-08-20T20:55:03.337Z,6.30
2018-08-20T20:57:31.995Z,6.13
2018-08-20T21:00:00.686Z,5.30
2018-08-20T21:02:29.349Z,5.97
2018-08-20T21:05:03.339Z,5.57
2018-08-20T21:07:33.289Z,5.67
2018-08-20T21:10:02.064Z,5.70
2018-08-20T21:12:31.508Z,5.40
2018-08-20T21:15:00.165Z,5.40
2018-08-20T21:17:30.008Z,6.37
2018-08-20T21:19:58.785Z,5.53
2018-08-20T21:22:27.465Z,5.70
2018-08-20T21:24:56.233Z,5.70
2018-08-20T21:27:27.273Z,5.97
2018-08-20T21:29:57.104Z,5.87
2018-08-20T21:32:25.758Z,6.43
2018-08-20T21:34:55.261Z,5.53
2018-08-20T21:37:23.961Z,5.30
2018-08-20T21:39:52.593Z,5.50
2018-08-20T21:42:28.147Z,5.30
2018-08-20T21:44:57.930Z,5.97
2018-08-20T21:47:28.865Z,5.50
2018-08-20T21:49:57.776Z,5.43
2018-08-20T21:52:26.501Z,6.83
2018-08-20T21:54:55.124Z,6.47
2018-08-20T21:57:23.745Z,6.73
2018-08-20T22:00:02.638Z,6.07
2018-08-20T22:02:32.306Z,5.60
2018-08-20T22:05:01.101Z,5.87
2018-08-20T22:07:29.773Z,5.87
2018-08-20T22:09:58.397Z,5.63
2018-08-20T22:12:27.573Z,5.50
2018-08-20T22:14:56.230Z,5.50
2018-08-20T22:17:30.755Z,6.53
2018-08-20T22:19:59.833Z,6.20
2018-08-20T22:22:28.628Z,5.80
2018-08-20T22:24:58.337Z,5.67
2018-08-20T22:27:27.730Z,5.97
2018-08-20T22:30:00.359Z,5.70
2018-08-20T22:32:29.539Z,6.10
2018-08-20T22:34:58.337Z,5.87
2018-08-20T22:37:26.942Z,6.00
2018-08-20T22:40:00.797Z,6.00
2018-08-20T22:42:43.500Z,6.27
2018-08-20T22:45:14.425Z,5.57
2018-08-20T22:47:43.985Z,5.80
2018-08-20T22:50:12.669Z,6.73
2018-08-20T22:52:43.555Z,5.60
2018-08-20T22:55:13.385Z,5.60
2018-08-20T22:57:49.639Z,6.30
2018-08-20T23:00:22.589Z,6.27
2018-08-20T23:02:53.177Z,5.77
2018-08-20T23:05:21.864Z,5.70
2018-08-20T23:07:51.087Z,6.20
2018-08-20T23:10:19.801Z,6.20
2018-08-20T23:12:50.785Z,5.67
2018-08-20T23:15:19.533Z,5.80
2018-08-20T23:17:48.229Z,6.80
2018-08-20T23:20:37.375Z,6.00
2018-08-20T23:23:06.009Z,6.17
2018-08-20T23:25:34.655Z,6.17
2018-08-20T23:28:03.300Z,6.17
2018-08-20T23:30:31.960Z,6.40
2018-08-20T23:33:00.575Z,6.70
2018-08-20T23:35:29.208Z,6.20
2018-08-20T23:37:57.822Z,6.73
2018-08-20T23:40:26.479Z,6.40
2018-08-20T23:42:55.289Z,6.80
2018-08-20T23:45:23.928Z,6.80
2018-08-20T23:47:52.554Z,7.00
2018-08-20T23:50:21.193Z,6.53
2018-08-20T23:52:49.854Z,6.67
2018-08-20T23:55:18.475Z,6.53
2018-08-20T23:57:47.126Z,6.50
